createdAt,value
2019-02-15T00:02:02.169Z,7.60
2019-02-15T00:07:07.857Z,8.77
2019-02-15T00:12:13.373Z,8.63
2019-02-15T00:17:34.703Z,8.17
2019-02-15T00:22:40.341Z,9.87
2019-02-15T00:27:45.897Z,8.43
2019-02-15T00:32:51.442Z,7.07
2019-02-15T00:37:57.025Z,6.90
2019-02-15T00:43:02.549Z,8.70
2019-02-15T00:48:12.501Z,8.43
2019-02-15T00:53:36.733Z,8.90
2019-02-15T00:58:54.382Z,7.90
2019-02-15T01:04:07.467Z,7.10
2019-02-15T01:09:50.679Z,8.03
2019-02-15T01:14:56.163Z,8.90
2019-02-15T01:20:01.688Z,9.53
2019-02-15T01:25:07.238Z,9.43
2019-02-15T01:30:30.260Z,10.37
2019-02-15T01:35:58.062Z,7.20
2019-02-15T01:41:12.807Z,8.23
2019-02-15T01:46:28.739Z,8.60
2019-02-15T01:51:34.317Z,8.93
2019-02-15T01:56:39.839Z,11.60
2019-02-15T02:01:45.228Z,10.13
2019-02-15T02:06:50.805Z,7.00
2019-02-15T02:11:56.488Z,8.10
2019-02-15T02:17:02.088Z,9.37
2019-02-15T02:22:07.759Z,8.47
2019-02-15T02:27:13.144Z,9.27
2019-02-15T02:32:18.626Z,8.23
2019-02-15T02:37:24.340Z,12.17
2019-02-15T02:42:29.806Z,8.47
2019-02-15T02:47:35.238Z,8.43
2019-02-15T02:52:40.686Z,11.17
2019-02-15T02:57:46.312Z,9.00
2019-02-15T03:02:51.719Z,9.57
2019-02-15T03:07:57.064Z,6.30
2019-02-15T03:13:02.493Z,8.23
2019-02-15T03:18:07.973Z,7.40
2019-02-15T03:23:13.435Z,6.57
2019-02-15T03:28:18.949Z,7.13
2019-02-15T03:33:24.436Z,10.00
2019-02-15T03:38:50.246Z,9.50
2019-02-15T03:43:56.205Z,11.40
2019-02-15T03:49:01.529Z,8.57
2019-02-15T03:54:07.013Z,10.77
2019-02-15T03:59:12.288Z,9.53
2019-02-15T04:04:17.586Z,7.73
2019-02-15T04:09:22.917Z,9.13
2019-02-15T04:14:32.885Z,7.40
2019-02-15T04:19:35.453Z,7.43
2019-02-15T04:24:40.862Z,8.80
2019-02-15T04:29:46.219Z,6.57
2019-02-15T04:34:51.730Z,9.87
2019-02-15T04:39:57.162Z,8.07
2019-02-15T04:45:02.564Z,7.47
2019-02-15T04:50:09.740Z,7.80
2019-02-15T04:55:15.073Z,8.23
2019-02-15T05:00:20.372Z,9.87
2019-02-15T05:05:25.961Z,8.37
2019-02-15T05:10:31.297Z,8.60
2019-02-15T05:15:36.606Z,8.23
2019-02-15T05:20:41.940Z,8.83
2019-02-15T05:25:47.395Z,7.40
2019-02-15T05:30:52.895Z,7.27
2019-02-15T05:35:58.347Z,7.30
2019-02-15T05:41:03.814Z,9.30
2019-02-15T05:46:09.429Z,9.20
2019-02-15T05:51:14.927Z,9.13
2019-02-15T05:56:20.405Z,9.20
2019-02-15T06:01:27.662Z,8.00
2019-02-15T06:06:33.125Z,10.97
2019-02-15T06:11:38.490Z,10.33
2019-02-15T06:16:43.781Z,7.47
2019-02-15T06:21:49.146Z,7.33
2019-02-15T06:26:54.514Z,6.37
2019-02-15T06:31:59.906Z,7.53
2019-02-15T06:37:05.390Z,8.10
2019-02-15T06:42:10.897Z,7.03
2019-02-15T06:47:16.308Z,7.80
2019-02-15T06:52:21.691Z,10.10
2019-02-15T06:57:26.982Z,8.80
2019-02-15T07:02:51.390Z,8.17
2019-02-15T07:07:57.091Z,12.43
2019-02-15T07:13:02.574Z,11.00
2019-02-15T07:18:08.266Z,9.53
2019-02-15T07:23:13.593Z,7.47
2019-02-15T07:28:18.999Z,8.63
2019-02-15T07:33:24.388Z,8.77
2019-02-15T07:38:29.740Z,7.63
2019-02-15T07:43:35.068Z,7.97
2019-02-15T07:48:40.491Z,8.83
2019-02-15T07:53:45.995Z,6.50
2019-02-15T07:58:51.392Z,8.67
2019-02-15T08:03:56.842Z,7.73
2019-02-15T08:09:02.238Z,9.87
2019-02-15T08:14:14.552Z,9.30
2019-02-15T08:19:14.686Z,8.40
2019-02-15T08:24:20.235Z,8.53
2019-02-15T08:29:25.612Z,7.40
2019-02-15T08:34:31.048Z,6.07
2019-02-15T08:39:36.606Z,9.53
2019-02-15T08:44:42.106Z,7.27
2019-02-15T08:49:47.413Z,6.33
2019-02-15T08:54:52.788Z,9.13
2019-02-15T08:59:58.129Z,8.50
2019-02-15T09:05:03.570Z,8.73
2019-02-15T09:10:10.902Z,9.37
2019-02-15T09:15:19.428Z,7.17
2019-02-15T09:20:24.749Z,7.27
2019-02-15T09:25:30.103Z,7.80
2019-02-15T09:30:35.409Z,7.37
2019-02-15T09:35:40.751Z,9.40
2019-02-15T09:40:46.162Z,7.40
2019-02-15T09:45:51.488Z,7.03
2019-02-15T09:50:56.839Z,8.77
2019-02-15T09:56:02.529Z,8.43
2019-02-15T10:01:07.968Z,8.23
2019-02-15T10:06:13.433Z,8.70
2019-02-15T10:11:18.909Z,8.97
2019-02-15T10:16:29.686Z,7.10
2019-02-15T10:21:33.030Z,9.17
2019-02-15T10:26:38.631Z,12.03
2019-02-15T10:31:43.976Z,11.87
2019-02-15T10:36:49.561Z,9.60
2019-02-15T10:41:54.958Z,9.53
2019-02-15T10:47:00.385Z,7.67
2019-02-15T10:52:05.868Z,10.87
2019-02-15T10:57:11.243Z,9.03
2019-02-15T11:02:16.641Z,11.77
2019-02-15T11:07:22.000Z,10.20
2019-02-15T11:12:27.485Z,9.40
2019-02-15T11:17:39.329Z,8.30
2019-02-15T11:22:44.673Z,9.63
2019-02-15T11:27:50.073Z,6.93
2019-02-15T11:32:55.389Z,7.60
2019-02-15T11:38:02.112Z,7.90
2019-02-15T11:43:07.583Z,7.87
2019-02-15T11:48:13.025Z,6.50
2019-02-15T11:53:20.453Z,11.17
2019-02-15T11:58:25.767Z,6.27
2019-02-15T12:03:31.121Z,6.30
2019-02-15T12:08:36.578Z,5.70
2019-02-15T12:13:42.036Z,7.30
2019-02-15T12:18:47.344Z,7.17
2019-02-15T12:23:52.653Z,6.63
2019-02-15T12:28:58.031Z,6.00
2019-02-15T12:34:03.529Z,4.87
2019-02-15T12:39:09.206Z,3.83
2019-02-15T12:44:14.654Z,3.47
2019-02-15T12:49:20.062Z,5.30
2019-02-15T12:54:25.449Z,4.90
2019-02-15T12:59:30.761Z,4.07
2019-02-15T13:04:36.169Z,5.37
2019-02-15T13:09:41.717Z,4.50
2019-02-15T13:14:47.063Z,4.20
2019-02-15T13:19:52.490Z,5.03
2019-02-15T13:24:57.989Z,3.60
2019-02-15T13:30:03.395Z,7.37
2019-02-15T13:35:10.589Z,3.13
2019-02-15T13:40:16.152Z,4.40
2019-02-15T13:45:21.544Z,4.40
2019-02-15T13:50:27.000Z,4.43
2019-02-15T13:55:32.387Z,3.60
2019-02-15T14:00:37.758Z,3.83
2019-02-15T14:05:43.093Z,4.60
2019-02-15T14:10:48.596Z,5.30
2019-02-15T14:15:54.054Z,4.63
2019-02-15T14:20:59.399Z,3.07
2019-02-15T14:26:04.819Z,2.47
2019-02-15T14:31:10.143Z,4.40
2019-02-15T14:36:15.614Z,3.47
2019-02-15T14:41:21.034Z,3.63
2019-02-15T14:46:26.377Z,3.73
2019-02-15T14:51:31.692Z,2.73
2019-02-15T14:56:37.162Z,5.03
2019-02-15T15:01:42.463Z,3.53
2019-02-15T15:06:48.433Z,3.13
2019-02-15T15:11:53.935Z,3.00
2019-02-15T15:16:59.246Z,4.00
2019-02-15T15:22:07.191Z,4.00
2019-02-15T15:27:13.903Z,2.33
2019-02-15T15:32:19.404Z,4.07
2019-02-15T15:37:24.920Z,3.90
2019-02-15T15:42:30.231Z,3.33
2019-02-15T15:47:35.954Z,3.87
2019-02-15T15:52:41.627Z,2.60
2019-02-15T15:57:47.110Z,3.73
2019-02-15T16:02:52.891Z,5.17
2019-02-15T16:07:58.328Z,4.90
2019-02-15T16:13:03.787Z,4.00
2019-02-15T16:18:09.093Z,4.97
2019-02-15T16:23:14.543Z,6.17
2019-02-15T16:28:20.023Z,6.93
2019-02-15T16:33:25.485Z,4.27
2019-02-15T16:38:31.087Z,3.57
2019-02-15T16:43:36.581Z,5.03
2019-02-15T16:48:42.466Z,7.80
2019-02-15T16:53:47.766Z,5.50
2019-02-15T16:58:53.088Z,4.33
2019-02-15T17:03:58.368Z,3.27
2019-02-15T17:09:05.455Z,4.17
2019-02-15T17:14:10.848Z,5.00
2019-02-15T17:19:16.269Z,4.10
2019-02-15T17:24:21.674Z,6.20
2019-02-15T17:29:27.062Z,4.37
2019-02-15T17:34:32.446Z,5.53
2019-02-15T17:39:37.880Z,6.13
2019-02-15T17:44:43.398Z,4.73
2019-02-15T17:49:48.841Z,5.73
2019-02-15T17:54:54.151Z,5.23
2019-02-15T17:59:59.639Z,7.07
2019-02-15T18:05:05.326Z,5.07
2019-02-15T18:10:10.824Z,5.40
2019-02-15T18:15:16.326Z,4.77
2019-02-15T18:20:21.701Z,7.63
2019-02-15T18:25:27.049Z,5.20
2019-02-15T18:30:32.392Z,5.17
2019-02-15T18:35:37.752Z,6.43
2019-02-15T18:40:43.068Z,6.77
2019-02-15T18:45:48.478Z,4.77
2019-02-15T18:50:53.972Z,6.70
2019-02-15T18:55:59.456Z,7.33
2019-02-15T19:01:05.032Z,6.23
2019-02-15T19:06:10.508Z,5.83
2019-02-15T19:11:16.077Z,5.50
2019-02-15T19:16:21.635Z,5.80
2019-02-15T19:21:26.975Z,5.20
2019-02-15T19:26:32.431Z,9.47
2019-02-15T19:31:37.832Z,8.13
2019-02-15T19:36:43.375Z,6.57
2019-02-15T19:41:48.708Z,5.83
2019-02-15T19:46:54.152Z,5.67
2019-02-15T19:51:59.526Z,8.83
2019-02-15T19:57:04.920Z,7.57
2019-02-15T20:02:10.237Z,7.47
2019-02-15T20:07:15.894Z,10.00
2019-02-15T20:12:21.199Z,7.27
2019-02-15T20:17:26.508Z,8.40
2019-02-15T20:22:31.864Z,8.20
2019-02-15T20:27:37.191Z,6.00
2019-02-15T20:32:42.551Z,6.77
2019-02-15T20:37:48.154Z,5.83
2019-02-15T20:42:53.582Z,6.63
2019-02-15T20:47:59.049Z,6.33
2019-02-15T20:53:04.351Z,9.13
2019-02-15T20:58:09.688Z,9.43
2019-02-15T21:03:14.962Z,7.67
2019-02-15T21:08:20.355Z,6.23
2019-02-15T21:13:25.776Z,7.97
2019-02-15T21:18:31.112Z,6.60
2019-02-15T21:23:36.386Z,6.30
2019-02-15T21:28:41.775Z,5.57
2019-02-15T21:33:47.139Z,7.63
2019-02-15T21:38:52.515Z,7.33
2019-02-15T21:43:57.866Z,8.03
2019-02-15T21:49:03.163Z,7.33
2019-02-15T21:54:08.631Z,8.00
2019-02-15T21:59:13.943Z,6.37
2019-02-15T22:04:19.257Z,7.10
2019-02-15T22:09:24.836Z,6.70
2019-02-15T22:14:30.160Z,10.53
2019-02-15T22:19:35.460Z,9.43
2019-02-15T22:24:40.773Z,6.97
2019-02-15T22:29:46.174Z,8.43
2019-02-15T22:34:51.507Z,11.03
2019-02-15T22:39:56.836Z,9.03
2019-02-15T22:45:02.470Z,8.03
2019-02-15T22:50:07.908Z,8.77
2019-02-15T22:55:13.344Z,10.00
2019-02-15T23:00:25.625Z,8.53
2019-02-15T23:05:30.934Z,9.07
2019-02-15T23:10:36.357Z,8.07
2019-02-15T23:15:41.840Z,10.10
2019-02-15T23:20:47.141Z,8.23
2019-02-15T23:25:55.713Z,9.07
2019-02-15T23:31:01.085Z,9.20
2019-02-15T23:36:06.507Z,8.70
2019-02-15T23:41:11.980Z,9.33
2019-02-15T23:46:17.338Z,8.07
2019-02-15T23:51:22.756Z,7.97
2019-02-15T23:56:28.070Z,8.17
